Time;durP1;ratioP1;P1;durP2;ratioP2;P2;SDS_P1;SDS_P2;PMS_P1;PMS_P2;Temp;Humidity;BMP_temperature;BMP_pressure;BME280_temperature;BME280_humidity;BME280_pressure;Samples;Min_cycle;Max_cycle;Signal;HPM_P1;HPM_P2
2022/08/08 00:00:10;;;;;;;6.40;2.60;;;;;;;;;;7313558;19;163907;-17
2022/08/08 00:02:53;;;;;;;7.85;2.70;;;;;;;;;;7314303;19;154491;-15
2022/08/08 00:05:30;;;;;;;4.88;2.88;;;;;;;;;;7312970;19;154540;-15
2022/08/08 00:08:11;;;;;;;3.72;2.47;;;;;;;;;;7315343;19;162288;-15
2022/08/08 00:10:54;;;;;;;12.40;2.60;;;;;;;;;;7315585;19;162902;-16
2022/08/08 00:13:32;;;;;;;7.80;2.83;;;;;;;;;;7314255;19;154625;-15
2022/08/08 00:16:09;;;;;;;9.18;2.88;;;;;;;;;;7315482;19;155886;-15
2022/08/08 00:18:51;;;;;;;14.20;2.70;;;;;;;;;;7316131;19;162695;-15
2022/08/08 00:21:28;;;;;;;9.98;2.72;;;;;;;;;;7314348;19;162865;-15
2022/08/08 00:24:05;;;;;;;10.50;2.92;;;;;;;;;;7314711;19;154387;-16
2022/08/08 00:26:43;;;;;;;5.88;2.60;;;;;;;;;;7317378;19;153651;-15
2022/08/08 00:29:19;;;;;;;6.70;2.05;;;;;;;;;;7312365;19;162286;-17
2022/08/08 00:31:55;;;;;;;7.05;2.40;;;;;;;;;;7314785;19;162908;-15
2022/08/08 00:37:39;;;;;;;6.85;2.38;;;;;;;;;;7316011;19;154399;-16
2022/08/08 00:40:41;;;;;;;7.32;3.05;;;;;;;;;;7311990;19;162370;-15
2022/08/08 00:43:39;;;;;;;5.85;2.45;;;;;;;;;;7315023;19;162844;-15
2022/08/08 00:46:33;;;;;;;4.35;2.10;;;;;;;;;;7317052;19;154413;-17
2022/08/08 00:49:29;;;;;;;4.90;2.08;;;;;;;;;;7314476;19;154653;-15
2022/08/08 00:52:34;;;;;;;6.38;2.42;;;;;;;;;;7316214;19;162292;-15
2022/08/08 00:55:41;;;;;;;4.95;2.80;;;;;;;;;;7314236;19;163227;-16
2022/08/08 00:58:40;;;;;;;8.80;3.47;;;;;;;;;;7314885;19;155101;-15
2022/08/08 01:01:17;;;;;;;6.55;2.65;;;;;;;;;;7314641;19;153936;-15
2022/08/08 01:04:30;;;;;;;4.93;2.40;;;;;;;;;;7312231;19;162365;-16
2022/08/08 01:07:34;;;;;;;3.97;2.67;;;;;;;;;;7313286;19;163655;-15
2022/08/08 01:10:40;;;;;;;3.15;2.28;;;;;;;;;;7313558;19;155007;-15
2022/08/08 01:13:56;;;;;;;6.43;3.00;;;;;;;;;;7315183;19;154585;-16
2022/08/08 01:17:09;;;;;;;6.93;2.47;;;;;;;;;;7312227;19;162863;-16
2022/08/08 01:20:10;;;;;;;5.03;2.45;;;;;;;;;;7311631;19;162873;-16
2022/08/08 01:23:26;;;;;;;4.22;2.13;;;;;;;;;;7312767;19;154806;-16
2022/08/08 01:26:18;;;;;;;5.63;2.83;;;;;;;;;;7314266;19;153920;-15
2022/08/08 01:29:22;;;;;;;6.63;2.50;;;;;;;;;;7311401;19;162947;-16
2022/08/08 01:32:40;;;;;;;5.35;2.65;;;;;;;;;;7310348;19;163638;-15
2022/08/08 01:35:45;;;;;;;6.18;2.75;;;;;;;;;;7312488;19;154475;-15
2022/08/08 01:38:49;;;;;;;5.45;2.53;;;;;;;;;;7313108;19;154720;-15
2022/08/08 01:41:30;;;;;;;10.20;2.65;;;;;;;;;;7308067;19;162363;-22
2022/08/08 01:44:10;;;;;;;4.05;2.67;;;;;;;;;;7312042;19;163197;-16
2022/08/08 01:46:51;;;;;;;3.55;2.60;;;;;;;;;;7311703;19;154590;-16
2022/08/08 01:49:42;;;;;;;5.18;2.60;;;;;;;;;;7312721;19;153999;-15
2022/08/08 01:52:30;;;;;;;3.87;2.03;;;;;;;;;;7312121;19;162785;-16
2022/08/08 01:55:09;;;;;;;6.00;2.33;;;;;;;;;;7310323;19;162915;-16
2022/08/08 01:57:51;;;;;;;4.57;2.45;;;;;;;;;;7310436;19;155001;-15
2022/08/08 02:00:28;;;;;;;5.07;2.58;;;;;;;;;;7309396;19;154388;-16
2022/08/08 02:03:30;;;;;;;4.25;2.35;;;;;;;;;;7309882;19;163438;-16
2022/08/08 02:06:15;;;;;;;4.65;2.30;;;;;;;;;;7310388;19;163747;-16
2022/08/08 02:08:59;;;;;;;3.78;2.35;;;;;;;;;;7313031;19;154515;-16
2022/08/08 02:11:39;;;;;;;3.65;2.22;;;;;;;;;;7309854;19;155052;-16
2022/08/08 02:14:21;;;;;;;3.90;1.88;;;;;;;;;;7311336;19;162687;-17
2022/08/08 02:17:02;;;;;;;4.82;2.38;;;;;;;;;;7309277;19;162861;-16
2022/08/08 02:19:44;;;;;;;3.88;2.22;;;;;;;;;;7309500;19;155129;-16
2022/08/08 02:22:32;;;;;;;4.03;2.53;;;;;;;;;;7311226;19;154117;-16
2022/08/08 02:25:23;;;;;;;2.10;1.90;;;;;;;;;;7311251;19;162254;-17
2022/08/08 02:28:00;;;;;;;4.50;2.53;;;;;;;;;;7311255;19;162838;-17
2022/08/08 02:30:59;;;;;;;2.92;1.85;;;;;;;;;;7311519;19;154502;-15
2022/08/08 02:33:46;;;;;;;6.65;2.40;;;;;;;;;;7310586;19;153954;-16
2022/08/08 02:36:39;;;;;;;3.05;1.92;;;;;;;;;;7310412;19;162509;-26
2022/08/08 02:39:29;;;;;;;3.83;2.47;;;;;;;;;;7309545;19;163010;-16
2022/08/08 02:42:36;;;;;;;6.47;2.60;;;;;;;;;;7309419;19;154467;-16
2022/08/08 02:45:49;;;;;;;2.08;1.90;;;;;;;;;;7310712;19;154199;-16
2022/08/08 02:48:53;;;;;;;3.38;2.00;;;;;;;;;;7309831;19;162954;-16
2022/08/08 02:51:53;;;;;;;3.20;2.10;;;;;;;;;;7310204;19;162931;-16
2022/08/08 02:55:06;;;;;;;3.92;2.47;;;;;;;;;;7310337;19;154530;-16
2022/08/08 02:58:11;;;;;;;3.20;2.13;;;;;;;;;;7313037;19;154285;-16
2022/08/08 03:01:20;;;;;;;3.05;1.90;;;;;;;;;;7309726;19;162356;-16
2022/08/08 03:04:23;;;;;;;3.10;1.80;;;;;;;;;;7310583;19;163173;-16
2022/08/08 03:07:09;;;;;;;;;;;;;;;;;;7308845;19;154395;-16
2022/08/08 03:10:12;;;;;;;4.40;1.92;;;;;;;;;;7308015;19;154177;-16
2022/08/08 03:13:17;;;;;;;;;;;;;;;;;;7310429;19;162446;-16
2022/08/08 03:16:12;;;;;;;4.43;2.55;;;;;;;;;;7310881;19;163069;-16
2022/08/08 03:19:00;;;;;;;3.97;1.85;;;;;;;;;;7308690;19;154853;-15
2022/08/08 03:21:31;;;;;;;2.92;1.70;;;;;;;;;;7309440;19;153488;-15
2022/08/08 03:24:05;;;;;;;2.92;1.88;;;;;;;;;;7310267;19;162502;-16
2022/08/08 03:26:41;;;;;;;3.17;2.00;;;;;;;;;;7307855;19;163479;-16
2022/08/08 03:29:19;;;;;;;3.97;2.13;;;;;;;;;;7308424;19;154981;-16
2022/08/08 03:34:41;;;;;;;3.78;2.38;;;;;;;;;;7309029;19;162475;-16
2022/08/08 03:37:19;;;;;;;5.05;2.10;;;;;;;;;;7308451;19;163254;-16
2022/08/08 03:39:53;;;;;;;4.78;2.20;;;;;;;;;;7308423;19;154970;-16
2022/08/08 03:42:25;;;;;;;5.70;2.13;;;;;;;;;;7306549;19;154008;-16
2022/08/08 03:44:59;;;;;;;2.95;2.35;;;;;;;;;;7309012;19;162323;-16
2022/08/08 03:47:30;;;;;;;3.47;2.00;;;;;;;;;;7308810;19;162835;-16
2022/08/08 03:50:01;;;;;;;4.78;2.00;;;;;;;;;;7307604;19;154553;-16
2022/08/08 03:52:37;;;;;;;4.68;2.67;;;;;;;;;;7311343;19;154009;-16
2022/08/08 03:55:15;;;;;;;4.20;1.90;;;;;;;;;;7306930;19;162459;-16
2022/08/08 03:57:47;;;;;;;2.05;1.80;;;;;;;;;;7308917;19;163558;-16
2022/08/08 04:00:20;;;;;;;2.83;1.83;;;;;;;;;;7307895;19;154488;-16
2022/08/08 04:03:01;;;;;;;2.70;1.70;;;;;;;;;;7309505;19;154058;-15
2022/08/08 04:05:34;;;;;;;2.05;1.85;;;;;;;;;;7313643;19;162730;-16
2022/08/08 04:08:19;;;;;;;2.88;1.80;;;;;;;;;;7314680;19;163360;-16
2022/08/08 04:10:54;;;;;;;2.85;1.60;;;;;;;;;;7316594;19;154612;-16
2022/08/08 04:13:25;;;;;;;3.25;2.28;;;;;;;;;;7315464;19;154539;-16
2022/08/08 04:16:01;;;;;;;3.65;1.80;;;;;;;;;;7314561;19;162353;-15
2022/08/08 04:18:36;;;;;;;2.83;1.80;;;;;;;;;;7314299;19;162864;-16
2022/08/08 04:21:10;;;;;;;2.58;2.00;;;;;;;;;;7313780;19;154417;-17
2022/08/08 04:23:43;;;;;;;2.53;1.83;;;;;;;;;;7314478;19;153972;-16
2022/08/08 04:26:17;;;;;;;3.17;1.98;;;;;;;;;;7313912;19;162428;-16
2022/08/08 04:28:48;;;;;;;2.63;1.92;;;;;;;;;;7314176;19;162926;-16
2022/08/08 04:31:20;;;;;;;2.33;1.90;;;;;;;;;;7314320;19;154058;-16
2022/08/08 04:33:51;;;;;;;2.63;1.73;;;;;;;;;;7314174;19;154007;-15
2022/08/08 04:36:22;;;;;;;4.15;2.20;;;;;;;;;;7315235;19;162259;-16
2022/08/08 04:38:53;;;;;;;2.28;1.90;;;;;;;;;;7314424;19;162818;-16
2022/08/08 04:41:40;;;;;;;3.05;1.92;;;;;;;;;;7312986;19;154495;-16
2022/08/08 04:44:11;;;;;;;1.98;1.77;;;;;;;;;;7315595;19;153941;-16
2022/08/08 04:46:42;;;;;;;2.17;1.63;;;;;;;;;;7313508;19;162247;-16
2022/08/08 04:49:13;;;;;;;2.88;2.10;;;;;;;;;;7313335;19;162900;-16
2022/08/08 04:51:45;;;;;;;2.42;2.05;;;;;;;;;;7313704;19;154914;-16
2022/08/08 04:54:16;;;;;;;2.47;1.83;;;;;;;;;;7313791;19;153980;-16
2022/08/08 04:56:50;;;;;;;3.38;2.13;;;;;;;;;;7313180;19;163091;-16
2022/08/08 04:59:23;;;;;;;2.83;1.77;;;;;;;;;;7312957;19;163237;-17
2022/08/08 05:01:55;;;;;;;4.32;1.83;;;;;;;;;;7312658;19;154445;-16
2022/08/08 05:04:26;;;;;;;2.58;1.85;;;;;;;;;;7313459;19;154594;-16
2022/08/08 05:06:58;;;;;;;2.10;1.73;;;;;;;;;;7313010;19;162664;-16
2022/08/08 05:09:29;;;;;;;2.80;1.90;;;;;;;;;;7313021;19;163221;-15
2022/08/08 05:12:04;;;;;;;2.67;2.05;;;;;;;;;;7313048;19;154650;-15
2022/08/08 05:14:36;;;;;;;4.05;2.05;;;;;;;;;;7312499;19;153994;-16
2022/08/08 05:17:10;;;;;;;3.35;2.05;;;;;;;;;;7313811;19;162212;-16
2022/08/08 05:19:41;;;;;;;3.85;2.05;;;;;;;;;;7313870;19;162782;-16
2022/08/08 05:22:14;;;;;;;4.00;1.90;;;;;;;;;;7311269;19;154492;-16
2022/08/08 05:24:48;;;;;;;3.83;2.28;;;;;;;;;;7312844;19;154095;-16
2022/08/08 05:27:26;;;;;;;3.03;2.00;;;;;;;;;;7312463;19;162301;-16
2022/08/08 05:29:58;;;;;;;3.75;2.72;;;;;;;;;;7313993;19;163215;-15
2022/08/08 05:32:36;;;;;;;3.72;2.83;;;;;;;;;;7311787;19;154512;-15
2022/08/08 05:35:12;;;;;;;4.90;3.00;;;;;;;;;;7315544;19;153965;-15
2022/08/08 05:37:50;;;;;;;6.22;3.35;;;;;;;;;;7311195;19;162345;-16
2022/08/08 05:40:22;;;;;;;6.40;3.85;;;;;;;;;;7310522;19;162884;-15
2022/08/08 05:43:03;;;;;;;15.57;4.17;;;;;;;;;;7310753;19;154419;-16
2022/08/08 05:45:37;;;;;;;6.57;3.42;;;;;;;;;;7312011;19;154102;-16
2022/08/08 05:48:09;;;;;;;8.40;4.15;;;;;;;;;;7313592;19;162421;-16
2022/08/08 05:50:41;;;;;;;8.95;4.65;;;;;;;;;;7311729;19;162919;-16
2022/08/08 05:53:13;;;;;;;8.38;4.57;;;;;;;;;;7312002;19;154440;-16
2022/08/08 05:55:46;;;;;;;13.65;4.47;;;;;;;;;;7313231;19;154492;-16
2022/08/08 05:58:21;;;;;;;8.27;4.25;;;;;;;;;;7313154;19;162228;-16
2022/08/08 06:00:56;;;;;;;9.20;4.57;;;;;;;;;;7311297;19;162970;-16
2022/08/08 06:03:28;;;;;;;8.23;4.13;;;;;;;;;;7311126;19;155013;-15
2022/08/08 06:06:05;;;;;;;5.85;4.28;;;;;;;;;;7311593;19;154647;-16
2022/08/08 06:08:44;;;;;;;7.82;4.60;;;;;;;;;;7311275;19;162268;-16
2022/08/08 06:11:15;;;;;;;5.35;4.38;;;;;;;;;;7312817;19;162852;-15
2022/08/08 06:13:52;;;;;;;6.18;4.63;;;;;;;;;;7311564;19;155042;-15
2022/08/08 06:16:25;;;;;;;6.82;4.72;;;;;;;;;;7312775;19;154019;-15
2022/08/08 06:19:10;;;;;;;8.13;4.90;;;;;;;;;;7311014;19;163005;-16
2022/08/08 06:21:49;;;;;;;6.25;4.78;;;;;;;;;;7310865;19;163444;-16
2022/08/08 06:24:23;;;;;;;8.45;4.80;;;;;;;;;;7311073;19;154852;-16
2022/08/08 06:27:03;;;;;;;9.50;4.82;;;;;;;;;;7309317;19;154046;-16
2022/08/08 06:29:46;;;;;;;8.20;5.57;;;;;;;;;;7310853;19;161762;-15
2022/08/08 06:32:19;;;;;;;10.30;5.05;;;;;;;;;;7310522;19;163941;-16
2022/08/08 06:34:55;;;;;;;9.80;5.25;;;;;;;;;;7310682;19;155048;-15
2022/08/08 06:37:30;;;;;;;6.38;5.18;;;;;;;;;;7312214;19;154401;-15
2022/08/08 06:40:06;;;;;;;8.30;5.43;;;;;;;;;;7308381;19;162355;-16
2022/08/08 06:42:38;;;;;;;10.35;5.80;;;;;;;;;;7309304;19;163342;-16
2022/08/08 06:45:15;;;;;;;8.45;5.82;;;;;;;;;;7310246;19;154499;-15
2022/08/08 06:47:46;;;;;;;7.22;5.72;;;;;;;;;;7310339;19;154618;-15
2022/08/08 06:50:18;;;;;;;8.27;5.50;;;;;;;;;;7309953;19;162148;-15
2022/08/08 06:52:50;;;;;;;14.88;6.50;;;;;;;;;;7309923;19;163495;-15
2022/08/08 06:55:24;;;;;;;11.90;6.35;;;;;;;;;;7310325;19;154426;-16
2022/08/08 06:57:55;;;;;;;8.38;6.70;;;;;;;;;;7311675;19;154569;-16
2022/08/08 07:00:33;;;;;;;9.48;5.47;;;;;;;;;;7311442;19;162648;-16
2022/08/08 07:03:10;;;;;;;11.43;6.10;;;;;;;;;;7308602;19;163204;-16
2022/08/08 07:05:43;;;;;;;10.57;6.22;;;;;;;;;;7310008;19;154389;-16
2022/08/08 07:08:19;;;;;;;9.93;6.22;;;;;;;;;;7311544;19;154020;-16
2022/08/08 07:10:52;;;;;;;10.32;7.60;;;;;;;;;;7310822;19;162353;-16
2022/08/08 07:13:28;;;;;;;9.23;7.32;;;;;;;;;;7311385;19;163063;-15
2022/08/08 07:16:06;;;;;;;10.10;6.97;;;;;;;;;;7311374;19;154874;-15
2022/08/08 07:18:51;;;;;;;8.98;6.25;;;;;;;;;;7309344;19;154420;-16
2022/08/08 07:21:24;;;;;;;;;;;;;;;;;;7309700;19;162357;-15
2022/08/08 07:24:03;;;;;;;7.93;5.85;;;;;;;;;;7307310;19;163617;-16
2022/08/08 07:26:49;;;;;;;10.43;6.35;;;;;;;;;;7309149;19;154820;-16
2022/08/08 07:29:21;;;;;;;11.45;6.63;;;;;;;;;;7310480;19;154322;-16
2022/08/08 07:31:56;;;;;;;11.98;6.85;;;;;;;;;;7308651;19;162458;-16
2022/08/08 07:34:29;;;;;;;11.32;6.88;;;;;;;;;;7308335;19;163293;-16
2022/08/08 07:37:02;;;;;;;7.78;5.47;;;;;;;;;;7308876;19;154480;-15
2022/08/08 07:39:34;;;;;;;6.95;5.88;;;;;;;;;;7311611;19;154194;-16
2022/08/08 07:42:07;;;;;;;9.45;5.90;;;;;;;;;;7315009;19;162407;-16
2022/08/08 07:44:40;;;;;;;10.27;5.47;;;;;;;;;;7315157;19;162900;-16
2022/08/08 07:47:15;;;;;;;8.35;4.57;;;;;;;;;;7315432;19;154414;-15
2022/08/08 07:49:48;;;;;;;6.80;5.40;;;;;;;;;;7315373;19;154116;-16
2022/08/08 07:52:21;;;;;;;7.93;4.97;;;;;;;;;;7314549;19;162456;-16
2022/08/08 07:55:04;;;;;;;8.43;4.63;;;;;;;;;;7315262;19;163675;-15
2022/08/08 07:57:43;;;;;;;7.18;5.32;;;;;;;;;;7315017;19;156150;-15
2022/08/08 08:00:16;;;;;;;8.13;4.60;;;;;;;;;;7315030;19;154723;-15
2022/08/08 08:03:11;;;;;;;5.72;4.32;;;;;;;;;;7314503;19;162737;-16
2022/08/08 08:05:46;;;;;;;6.38;4.30;;;;;;;;;;7314461;19;163399;-15
2022/08/08 08:08:20;;;;;;;5.80;4.40;;;;;;;;;;7314699;19;155135;-16
2022/08/08 08:10:57;;;;;;;6.57;4.70;;;;;;;;;;7314302;19;154778;-16
2022/08/08 08:13:38;;;;;;;4.95;4.32;;;;;;;;;;7314985;19;163156;-16
2022/08/08 08:16:11;;;;;;;7.93;4.07;;;;;;;;;;7313865;19;162821;-16
2022/08/08 08:18:55;;;;;;;9.00;4.40;;;;;;;;;;7312076;19;154916;-16
2022/08/08 08:21:37;;;;;;;8.73;4.82;;;;;;;;;;7314047;19;154185;-17
2022/08/08 08:24:09;;;;;;;12.02;4.88;;;;;;;;;;7309749;19;162827;-16
2022/08/08 08:26:41;;;;;;;10.48;4.72;;;;;;;;;;7315230;19;163557;-16
2022/08/08 08:29:13;;;;;;;8.18;4.30;;;;;;;;;;7311711;19;154450;-19
2022/08/08 08:31:47;;;;;;;11.50;4.35;;;;;;;;;;7313562;19;154058;-16
2022/08/08 08:34:21;;;;;;;5.47;4.05;;;;;;;;;;7313605;19;162405;-16
2022/08/08 08:36:53;;;;;;;7.78;4.43;;;;;;;;;;7313522;19;162953;-16
2022/08/08 08:39:25;;;;;;;9.73;4.50;;;;;;;;;;7312767;19;154954;-16
2022/08/08 08:41:57;;;;;;;5.40;3.90;;;;;;;;;;7315665;19;154414;-16
2022/08/08 08:44:30;;;;;;;8.25;3.80;;;;;;;;;;7312623;19;162368;-16
2022/08/08 08:47:03;;;;;;;9.32;4.72;;;;;;;;;;7315137;19;162793;-16
2022/08/08 08:49:37;;;;;;;6.70;4.50;;;;;;;;;;7313226;19;154561;-17
2022/08/08 08:52:10;;;;;;;10.75;5.00;;;;;;;;;;7315308;19;154370;-16
2022/08/08 08:54:42;;;;;;;6.85;3.88;;;;;;;;;;7313123;19;162362;-17
2022/08/08 08:57:13;;;;;;;6.23;4.33;;;;;;;;;;7314653;19;162905;-16
2022/08/08 08:59:47;;;;;;;;;;;;;;;;;;7310045;19;154438;-17
2022/08/08 09:02:23;;;;;;;7.22;4.57;;;;;;;;;;7310777;19;153853;-16
2022/08/08 09:05:06;;;;;;;8.63;4.35;;;;;;;;;;7308724;19;162851;-16
2022/08/08 09:07:38;;;;;;;6.72;4.25;;;;;;;;;;7312007;19;162825;-18
2022/08/08 09:10:16;;;;;;;10.93;4.10;;;;;;;;;;7312240;19;155104;-18
2022/08/08 09:12:51;;;;;;;6.55;3.72;;;;;;;;;;7314159;19;153967;-17
2022/08/08 09:15:23;;;;;;;5.75;3.40;;;;;;;;;;7312725;19;162812;-16
2022/08/08 09:17:55;;;;;;;6.43;4.10;;;;;;;;;;7310690;19;163424;-16
2022/08/08 09:20:36;;;;;;;5.15;3.65;;;;;;;;;;7311160;19;156080;-17
2022/08/08 09:23:08;;;;;;;9.25;3.83;;;;;;;;;;7312254;19;154216;-17
2022/08/08 09:25:43;;;;;;;7.13;3.87;;;;;;;;;;7310081;19;162457;-17
2022/08/08 09:28:14;;;;;;;6.53;3.83;;;;;;;;;;7311618;19;163758;-17
2022/08/08 09:30:48;;;;;;;6.43;4.13;;;;;;;;;;7311967;19;154826;-17
2022/08/08 09:33:21;;;;;;;7.03;4.03;;;;;;;;;;7312299;19;154251;-17
2022/08/08 09:35:55;;;;;;;6.43;3.47;;;;;;;;;;7313373;19;162397;-16
2022/08/08 09:38:40;;;;;;;5.35;3.67;;;;;;;;;;7311776;19;163306;-17
2022/08/08 09:41:14;;;;;;;6.85;3.58;;;;;;;;;;7312130;19;155304;-17
2022/08/08 09:43:51;;;;;;;5.80;3.80;;;;;;;;;;7312737;19;154298;-15
2022/08/08 09:46:25;;;;;;;5.80;3.60;;;;;;;;;;7310703;19;162254;-18
2022/08/08 09:48:57;;;;;;;7.43;3.47;;;;;;;;;;7312344;19;162851;-14
2022/08/08 09:51:33;;;;;;;6.03;3.85;;;;;;;;;;7313825;19;154492;-18
2022/08/08 09:54:07;;;;;;;5.63;4.00;;;;;;;;;;7312816;19;154015;-16
2022/08/08 09:56:44;;;;;;;6.60;3.60;;;;;;;;;;7311023;19;162321;-15
2022/08/08 09:59:25;;;;;;;5.85;3.58;;;;;;;;;;7312113;19;162898;-17
2022/08/08 10:02:23;;;;;;;4.53;3.45;;;;;;;;;;7310901;19;154444;-15
2022/08/08 10:04:54;;;;;;;6.32;3.50;;;;;;;;;;7312330;19;153966;-15
2022/08/08 10:07:28;;;;;;;7.22;3.88;;;;;;;;;;7312794;19;162228;-15
2022/08/08 10:10:00;;;;;;;6.78;4.20;;;;;;;;;;7310581;19;162873;-15
2022/08/08 10:12:36;;;;;;;8.88;3.63;;;;;;;;;;7312986;19;154366;-17
2022/08/08 10:15:11;;;;;;;5.60;3.83;;;;;;;;;;7312628;19;154022;-17
2022/08/08 10:17:49;;;;;;;4.80;3.50;;;;;;;;;;7312370;19;162293;-16
2022/08/08 10:20:22;;;;;;;7.00;3.78;;;;;;;;;;7311863;19;163418;-15
2022/08/08 10:23:03;;;;;;;7.63;3.83;;;;;;;;;;7312758;19;154524;-17
2022/08/08 10:25:36;;;;;;;5.07;3.83;;;;;;;;;;7310837;19;154426;-17
2022/08/08 10:28:17;;;;;;;7.75;3.90;;;;;;;;;;7311663;19;162312;-17
2022/08/08 10:30:56;;;;;;;8.15;3.88;;;;;;;;;;7311818;19;162774;-17
2022/08/08 10:33:35;;;;;;;4.78;3.25;;;;;;;;;;7312155;19;154371;-15
2022/08/08 10:36:07;;;;;;;5.80;3.95;;;;;;;;;;7311900;19;154005;-15
2022/08/08 10:38:43;;;;;;;7.63;3.83;;;;;;;;;;7311586;19;162736;-15
2022/08/08 10:41:19;;;;;;;6.18;3.50;;;;;;;;;;7310877;19;163551;-15
2022/08/08 10:43:52;;;;;;;3.90;3.60;;;;;;;;;;7312092;19;154355;-15
2022/08/08 10:46:30;;;;;;;4.07;3.53;;;;;;;;;;7310036;19;156257;-15
2022/08/08 10:49:02;;;;;;;7.30;3.35;;;;;;;;;;7311329;19;162220;-15
2022/08/08 10:51:39;;;;;;;6.32;3.55;;;;;;;;;;7311359;19;162893;-15
2022/08/08 10:54:21;;;;;;;7.07;3.58;;;;;;;;;;7311307;19;154472;-15
2022/08/08 10:56:59;;;;;;;7.40;3.65;;;;;;;;;;7311106;19;153932;-14
2022/08/08 10:59:30;;;;;;;4.55;4.05;;;;;;;;;;7310719;19;162652;-16
2022/08/08 11:02:02;;;;;;;8.10;3.50;;;;;;;;;;7310428;19;162894;-15
2022/08/08 11:04:33;;;;;;;4.47;3.88;;;;;;;;;;7309649;19;154447;-15
2022/08/08 11:07:04;;;;;;;9.50;3.63;;;;;;;;;;7306916;19;153939;-15
2022/08/08 11:09:48;;;;;;;3.33;3.00;;;;;;;;;;7310545;19;162726;-14
2022/08/08 11:12:20;;;;;;;9.35;3.50;;;;;;;;;;7310454;19;162929;-15
2022/08/08 11:14:55;;;;;;;6.47;4.00;;;;;;;;;;7317929;19;154489;-15
2022/08/08 11:17:28;;;;;;;4.18;3.78;;;;;;;;;;7317358;19;154028;-15
2022/08/08 11:20:00;;;;;;;6.43;3.38;;;;;;;;;;7317274;19;162663;-14
2022/08/08 11:22:35;;;;;;;4.60;3.50;;;;;;;;;;7317395;19;162872;-15
2022/08/08 11:25:11;;;;;;;3.53;3.15;;;;;;;;;;7317368;19;155419;-15
2022/08/08 11:27:45;;;;;;;4.47;3.08;;;;;;;;;;7315443;19;153910;-15
2022/08/08 11:30:17;;;;;;;4.20;3.20;;;;;;;;;;7316799;19;162294;-15
2022/08/08 11:32:49;;;;;;;5.72;3.10;;;;;;;;;;7316947;19;163381;-15
2022/08/08 11:35:20;;;;;;;3.78;3.28;;;;;;;;;;7315740;19;154911;-15
2022/08/08 11:37:52;;;;;;;5.70;3.42;;;;;;;;;;7316173;19;153951;-15
2022/08/08 11:40:25;;;;;;;5.82;3.28;;;;;;;;;;7315054;19;162691;-15
2022/08/08 11:42:57;;;;;;;5.15;3.28;;;;;;;;;;7313467;19;162809;-16
2022/08/08 11:45:29;;;;;;;5.82;3.55;;;;;;;;;;7315072;19;154740;-15
2022/08/08 11:48:02;;;;;;;6.13;3.45;;;;;;;;;;7314650;19;153977;-15
2022/08/08 11:50:35;;;;;;;5.60;3.38;;;;;;;;;;7314373;19;162684;-15
2022/08/08 11:53:06;;;;;;;6.13;3.53;;;;;;;;;;7314968;19;162944;-16
2022/08/08 11:55:49;;;;;;;6.47;3.50;;;;;;;;;;7313754;19;154971;-15
2022/08/08 11:58:20;;;;;;;4.73;3.17;;;;;;;;;;7314487;19;153915;-16
2022/08/08 12:00:54;;;;;;;3.65;3.28;;;;;;;;;;7314312;19;162216;-16
2022/08/08 12:03:27;;;;;;;5.05;3.40;;;;;;;;;;7314278;19;162781;-15
2022/08/08 12:05:58;;;;;;;5.45;3.15;;;;;;;;;;7312351;19;154501;-16
2022/08/08 12:08:33;;;;;;;7.97;3.05;;;;;;;;;;7311815;19;154488;-16
2022/08/08 12:11:13;;;;;;;6.57;3.42;;;;;;;;;;7314121;19;162909;-16
2022/08/08 12:13:44;;;;;;;3.38;2.90;;;;;;;;;;7313635;19;163207;-15
2022/08/08 12:16:18;;;;;;;3.58;3.28;;;;;;;;;;7313773;19;154410;-16
2022/08/08 12:18:52;;;;;;;4.75;3.25;;;;;;;;;;7313448;19;153996;-16
2022/08/08 12:21:34;;;;;;;6.45;3.15;;;;;;;;;;7313299;19;162212;-14
2022/08/08 12:24:07;;;;;;;3.97;3.50;;;;;;;;;;7311439;19;162794;-16
2022/08/08 12:26:43;;;;;;;5.07;3.20;;;;;;;;;;7310875;19;154680;-15
2022/08/08 12:29:23;;;;;;;4.97;3.20;;;;;;;;;;7313643;19;155100;-17
2022/08/08 12:32:06;;;;;;;3.85;2.83;;;;;;;;;;7313628;19;162219;-16
2022/08/08 12:34:45;;;;;;;4.32;2.80;;;;;;;;;;7312502;19;163082;-16
2022/08/08 12:37:22;;;;;;;3.20;2.90;;;;;;;;;;7314880;19;154399;-16
2022/08/08 12:39:53;;;;;;;4.00;3.15;;;;;;;;;;7312951;19;154019;-16
2022/08/08 12:42:27;;;;;;;3.97;2.90;;;;;;;;;;7314341;19;162293;-14
2022/08/08 12:45:07;;;;;;;3.20;2.90;;;;;;;;;;7314776;19;163305;-16
2022/08/08 12:47:38;;;;;;;3.35;3.05;;;;;;;;;;7313598;19;154414;-16
2022/08/08 12:50:28;;;;;;;4.30;2.63;;;;;;;;;;7314395;19;153929;-16
2022/08/08 12:52:59;;;;;;;5.20;2.63;;;;;;;;;;7314482;19;162771;-16
2022/08/08 12:55:30;;;;;;;7.15;2.72;;;;;;;;;;7311334;19;162770;-16
2022/08/08 12:58:17;;;;;;;5.35;3.28;;;;;;;;;;7309420;19;154844;-16
2022/08/08 13:00:49;;;;;;;4.10;3.05;;;;;;;;;;7310666;19;154597;-18
2022/08/08 13:03:30;;;;;;;3.17;2.88;;;;;;;;;;7310062;19;162901;-16
2022/08/08 13:06:10;;;;;;;3.80;2.95;;;;;;;;;;7313915;19;162799;-16
2022/08/08 13:08:45;;;;;;;5.75;2.70;;;;;;;;;;7312608;19;155034;-15
2022/08/08 13:11:26;;;;;;;5.22;2.78;;;;;;;;;;7312787;19;154020;-15
2022/08/08 13:14:10;;;;;;;5.28;2.72;;;;;;;;;;7313510;19;162455;-16
2022/08/08 13:16:41;;;;;;;12.15;5.22;;;;;;;;;;7313709;19;163007;-15
2022/08/08 13:19:12;;;;;;;10.90;4.40;;;;;;;;;;7312780;19;154367;-15
2022/08/08 13:21:45;;;;;;;54.45;17.17;;;;;;;;;;7314137;19;153921;-15
2022/08/08 13:24:16;;;;;;;45.85;15.05;;;;;;;;;;7313444;19;162264;-15
2022/08/08 13:26:47;;;;;;;44.70;14.63;;;;;;;;;;7313509;19;163500;-15
2022/08/08 13:29:21;;;;;;;39.83;13.88;;;;;;;;;;7313289;19;154422;-15
2022/08/08 13:31:53;;;;;;;51.88;15.65;;;;;;;;;;7311475;19;154078;-16
2022/08/08 13:34:26;;;;;;;41.22;13.60;;;;;;;;;;7313382;19;162182;-16
2022/08/08 13:36:58;;;;;;;35.63;14.77;;;;;;;;;;7311813;19;163343;-17
2022/08/08 13:39:29;;;;;;;48.33;14.32;;;;;;;;;;7313824;19;154332;-16
2022/08/08 13:42:01;;;;;;;47.90;14.40;;;;;;;;;;7313553;19;154120;-16
2022/08/08 13:44:35;;;;;;;40.30;15.00;;;;;;;;;;7313304;19;162382;-16
2022/08/08 13:47:07;;;;;;;40.85;14.05;;;;;;;;;;7313867;19;163022;-16
2022/08/08 13:49:38;;;;;;;40.83;13.50;;;;;;;;;;7313349;19;154340;-17
2022/08/08 13:52:12;;;;;;;48.25;14.45;;;;;;;;;;7313238;19;153393;-16
2022/08/08 13:54:47;;;;;;;38.70;15.15;;;;;;;;;;7312746;19;162204;-16
2022/08/08 13:57:18;;;;;;;42.55;14.23;;;;;;;;;;7311891;19;162786;-16
2022/08/08 13:59:52;;;;;;;40.35;14.68;;;;;;;;;;7314688;19;154191;-16
2022/08/08 14:02:27;;;;;;;39.75;14.35;;;;;;;;;;7312359;19;154068;-16
2022/08/08 14:05:00;;;;;;;41.03;13.65;;;;;;;;;;7312334;19;162322;-16
2022/08/08 14:07:32;;;;;;;45.10;14.25;;;;;;;;;;7310863;19;163358;-16
2022/08/08 14:10:04;;;;;;;;;;;;;;;;;;7314148;19;154702;-16
2022/08/08 14:12:38;;;;;;;33.22;13.60;;;;;;;;;;7314533;19;154339;-17
2022/08/08 14:15:24;;;;;;;36.45;13.95;;;;;;;;;;7311604;19;162642;-16
2022/08/08 14:17:59;;;;;;;36.25;14.40;;;;;;;;;;7311568;19;162762;-17
2022/08/08 14:20:34;;;;;;;47.53;16.55;;;;;;;;;;7314379;19;154939;-16
2022/08/08 14:23:09;;;;;;;44.58;13.65;;;;;;;;;;7311786;19;154388;-16
2022/08/08 14:25:47;;;;;;;38.20;13.80;;;;;;;;;;7313356;19;162658;-16
2022/08/08 14:28:19;;;;;;;37.75;13.60;;;;;;;;;;7310962;19;163265;-16
2022/08/08 14:30:54;;;;;;;34.22;12.85;;;;;;;;;;7313630;19;154516;-16
2022/08/08 14:33:29;;;;;;;38.38;13.75;;;;;;;;;;7311645;19;154402;-16
2022/08/08 14:36:01;;;;;;;40.00;14.60;;;;;;;;;;7313300;19;162686;-16
2022/08/08 14:38:34;;;;;;;37.83;14.27;;;;;;;;;;7312086;19;162791;-16
2022/08/08 14:41:12;;;;;;;42.80;13.93;;;;;;;;;;7309504;19;155011;-17
2022/08/08 14:43:48;;;;;;;33.85;13.27;;;;;;;;;;7311961;19;154188;-16
2022/08/08 14:46:26;;;;;;;35.78;13.13;;;;;;;;;;7310789;19;162814;-16
2022/08/08 14:48:58;;;;;;;37.33;13.98;;;;;;;;;;7308488;19;162705;-17
2022/08/08 14:51:30;;;;;;;34.70;12.38;;;;;;;;;;7311683;19;154756;-16
2022/08/08 14:54:05;;;;;;;37.28;13.23;;;;;;;;;;7311739;19;154792;-17
2022/08/08 14:56:39;;;;;;;37.60;14.60;;;;;;;;;;7310814;19;162641;-16
2022/08/08 14:59:12;;;;;;;33.10;12.77;;;;;;;;;;7310662;19;163244;-17
2022/08/08 15:01:49;;;;;;;37.28;13.63;;;;;;;;;;7311272;19;153973;-17
2022/08/08 15:04:20;;;;;;;36.55;13.85;;;;;;;;;;7311068;19;154181;-16
2022/08/08 15:06:51;;;;;;;43.28;13.60;;;;;;;;;;7310910;19;162738;-16
2022/08/08 15:09:22;;;;;;;31.10;12.68;;;;;;;;;;7308599;19;163355;-16
2022/08/08 15:11:53;;;;;;;32.30;12.23;;;;;;;;;;7311105;19;154613;-16
2022/08/08 15:14:24;;;;;;;37.55;12.10;;;;;;;;;;7310522;19;154077;-17
2022/08/08 15:16:58;;;;;;;36.40;12.88;;;;;;;;;;7309929;19;161743;-17
2022/08/08 15:19:30;;;;;;;38.78;13.57;;;;;;;;;;7310353;19;163057;-16
2022/08/08 15:22:01;;;;;;;33.75;13.02;;;;;;;;;;7310424;19;154773;-17
2022/08/08 15:24:32;;;;;;;33.42;13.48;;;;;;;;;;7309158;19;154057;-16
2022/08/08 15:27:03;;;;;;;35.80;12.32;;;;;;;;;;7310463;19;162256;-16
2022/08/08 15:29:35;;;;;;;35.38;13.60;;;;;;;;;;7307934;19;163166;-16
2022/08/08 15:32:09;;;;;;;36.72;12.80;;;;;;;;;;7309998;19;154863;-16
2022/08/08 15:34:41;;;;;;;31.25;12.45;;;;;;;;;;7308670;19;154746;-16